Metar Aeropuerto Ibiza
Pocas Nubes
Pocas Nubes
STATION : LEIB
METAR : 2017/09/22 08:00 LEIB 220800Z 07011KT 9999 FEW022 24/17 Q1018 NOSIG
WINDMPH : ENE at 13 mph
WIND : ENE at 13 mph (20 km/h)
VISIBILITY : 6 miles (10 km)
CONDITIONS :
CLOUDS : Few Clouds
CLOUD-DETAILS : Few Clouds 2200 ft
TEMP : 75°F (24°C)
DEWPT : 63°F (17°C)
HUMIDITY : 65%
BAROMETER : 30.06 inHg (1018 hPa)
RAW-METAR : 2017/09/22 08:00 LEIB 220800Z 07011KT 9999 FEW022 24/17 Q1018 NOSIG
 Publicidad